Time;durP1;ratioP1;P1;durP2;ratioP2;P2;SDS_P1;SDS_P2;PMS_P1;PMS_P2;Temp;Humidity;BMP_temperature;BMP_pressure;BME280_temperature;BME280_humidity;BME280_pressure;Samples;Min_cycle;Max_cycle;Signal;HPM_P1;HPM_P2
2022/07/02 00:04:17;;;;;;;;;;;;;;;;;;;;;
2022/07/02 00:07:18;;;;;;;5.22;3.30;;;;;;;13.64;80.20;102087.16;4609162;31;20063;-83
2022/07/02 00:17:16;;;;;;;6.43;3.40;;;;;;;13.52;80.65;102087.97;4529961;31;20056;-82
2022/07/02 00:20:02;;;;;;;;;;;;;;;13.64;78.39;102092.47;4615651;31;20063;-82
2022/07/02 00:26:59;;;;;;;;;;;;;;;;;;;;;
2022/07/02 00:30:31;;;;;;;;;;;;;;;;;;;;;
2022/07/02 00:51:07;;;;;;;;;;;;;;;;;;;;;
2022/07/02 01:39:45;;;;;;;8.57;3.50;;;;;;;12.95;83.43;102076.75;4672545;30;20048;-83
2022/07/02 01:45:44;;;;;;;9.40;3.30;;;;;;;12.94;84.02;102078.53;4680858;30;20506;-83
2022/07/02 01:48:19;;;;;;;6.00;3.00;;;;;;;12.90;84.30;102073.56;4696852;30;20058;-82
2022/07/02 01:51:42;;;;;;;9.10;3.05;;;;;;;12.97;83.19;102077.50;4697158;30;20086;-82
2022/07/02 01:54:52;;;;;;;5.43;3.20;;;;;;;12.95;84.10;102072.31;4731119;30;20219;-82
2022/07/02 02:04:02;;;;;;;4.90;2.58;;;;;;;12.83;84.38;102062.53;4759494;30;20200;-83
2022/07/02 02:09:50;;;;;;;8.30;3.30;;;;;;;12.72;84.74;102068.47;4777521;30;20066;-82
2022/07/02 02:16:48;;;;;;;6.68;2.80;;;;;;;12.86;83.79;102063.19;4729061;30;20059;-83
2022/07/02 02:30:40;;;;;;;6.95;2.85;;;;;;;12.79;84.67;102072.41;4729966;30;20494;-84
2022/07/02 02:33:48;;;;;;;8.55;3.08;;;;;;;12.80;84.48;102078.53;4733929;30;20036;-83
2022/07/02 02:39:42;;;;;;;8.50;3.10;;;;;;;12.81;84.71;102073.19;4660440;30;20428;-83
2022/07/02 02:45:53;;;;;;;6.10;3.40;;;;;;;12.77;84.13;102062.91;4677366;30;20085;-83
2022/07/02 02:48:53;;;;;;;7.28;2.92;;;;;;;12.83;84.13;102067.81;4695964;30;20209;-83
2022/07/02 02:59:11;;;;;;;6.95;3.17;;;;;;;12.85;84.33;102076.50;4674266;30;20379;-81
2022/07/02 03:12:45;;;;;;;6.65;3.35;;;;;;;12.81;84.21;102078.47;4732450;30;20073;-82
2022/07/02 07:03:14;;;;;;;;;;;;;;;;;;;;;
2022/07/02 09:05:37;;;;;;;3.40;1.20;;;;;;;24.04;46.06;102080.41;4715798;30;20115;-86
2022/07/02 10:15:29;;;;;;;3.88;0.80;;;;;;;24.02;42.47;102023.28;5074950;24;20070;-85
2022/07/02 10:17:56;;;;;;;5.97;1.15;;;;;;;24.18;41.16;102016.16;4802516;29;20047;-85
2022/07/02 10:20:31;;;;;;;3.83;1.02;;;;;;;24.33;42.11;102009.88;4807309;29;20104;-86
2022/07/02 10:23:17;;;;;;;2.92;0.85;;;;;;;24.28;42.29;102006.88;4802807;29;20054;-86
2022/07/02 10:30:42;;;;;;;2.05;0.80;;;;;;;23.96;43.72;102007.81;4796039;29;20600;-86
2022/07/02 10:36:44;;;;;;;4.30;1.27;;;;;;;23.83;43.18;102004.00;4801009;29;20564;-86
2022/07/02 10:40:02;;;;;;;4.07;1.08;;;;;;;24.06;42.76;102007.63;4786333;29;20050;-85
2022/07/02 10:42:53;;;;;;;3.10;0.98;;;;;;;24.10;40.64;101992.81;4767115;29;20053;-86
2022/07/02 10:45:37;;;;;;;3.50;0.80;;;;;;;24.02;41.12;102006.31;4789744;29;20096;-86
2022/07/02 10:49:00;;;;;;;3.42;0.90;;;;;;;23.96;40.27;102005.13;4798402;29;20050;-86
2022/07/02 10:54:55;;;;;;;3.83;0.80;;;;;;;23.67;41.80;101989.59;4766331;30;20050;-84
2022/07/02 10:57:44;;;;;;;4.72;0.95;;;;;;;24.08;41.56;101994.84;4793644;29;20836;-85
2022/07/02 11:01:12;;;;;;;2.95;1.08;;;;;;;24.22;41.15;101986.03;4801791;29;20504;-85
2022/07/02 11:07:54;;;;;;;4.15;0.95;;;;;;;24.06;41.15;101978.06;4751394;30;20228;-85
2022/07/02 11:10:54;;;;;;;2.17;0.50;;;;;;;24.42;38.88;101981.09;4712166;30;20037;-85
2022/07/02 11:13:20;;;;;;;2.67;0.70;;;;;;;24.39;37.55;101986.81;4712452;30;20049;-84
2022/07/02 11:15:45;;;;;;;3.42;0.93;;;;;;;24.47;37.09;101984.09;4754528;30;20054;-85
2022/07/02 11:18:15;;;;;;;2.65;0.75;;;;;;;24.21;36.09;101978.97;4764962;30;20256;-85
2022/07/02 11:20:43;;;;;;;2.22;0.60;;;;;;;24.56;38.58;101979.50;4764112;30;20043;-84
2022/07/02 11:23:09;;;;;;;1.27;0.50;;;;;;;24.94;37.51;101981.25;4765006;30;20124;-85
2022/07/02 11:25:34;;;;;;;3.97;0.70;;;;;;;25.14;35.54;101978.94;4764819;30;20044;-85
2022/07/02 11:28:03;;;;;;;2.00;0.73;;;;;;;25.30;38.05;101972.56;4771271;29;20784;-85
2022/07/02 11:30:33;;;;;;;3.17;0.70;;;;;;;25.35;35.36;101951.31;4782411;29;20047;-84
2022/07/02 11:32:59;;;;;;;3.17;0.60;;;;;;;25.48;35.57;101956.88;4781490;29;20157;-85
2022/07/02 11:35:24;;;;;;;3.42;0.70;;;;;;;25.63;36.37;101964.16;4786220;29;20634;-85
2022/07/02 11:38:03;;;;;;;2.28;0.60;;;;;;;25.77;34.47;101957.97;4792764;29;20252;-85
2022/07/02 11:41:26;;;;;;;4.00;0.60;;;;;;;25.89;37.20;101959.16;4798585;29;20492;-85
2022/07/02 11:43:55;;;;;;;1.55;0.63;;;;;;;25.55;33.37;101962.38;4778784;29;20030;-84
2022/07/02 11:46:25;;;;;;;2.13;0.68;;;;;;;25.46;34.84;101958.09;4803174;29;20051;-85
2022/07/02 11:49:01;;;;;;;1.65;0.65;;;;;;;25.42;35.70;101949.53;4804442;29;20121;-85
2022/07/02 11:52:06;;;;;;;4.07;0.70;;;;;;;25.22;36.28;101946.56;4787453;29;20043;-85
2022/07/02 11:54:40;;;;;;;4.63;0.65;;;;;;;24.87;36.40;101942.63;4793758;29;20030;-85
2022/07/02 11:57:06;;;;;;;2.33;0.60;;;;;;;24.91;36.53;101943.91;4791002;29;20107;-85
2022/07/02 11:59:31;;;;;;;3.83;0.68;;;;;;;24.97;36.98;101948.59;4786278;29;20488;-85
2022/07/02 12:02:03;;;;;;;1.63;0.60;;;;;;;25.31;37.05;101939.22;4786353;29;20047;-86
2022/07/02 12:04:34;;;;;;;2.55;0.80;;;;;;;25.57;36.55;101939.59;4773686;29;20039;-86
2022/07/02 12:07:01;;;;;;;2.57;0.87;;;;;;;25.42;35.44;101941.47;4788151;29;20384;-86
2022/07/02 12:09:26;;;;;;;2.67;0.70;;;;;;;25.45;38.21;101932.16;4788640;29;20035;-85
2022/07/02 12:11:56;;;;;;;2.22;0.80;;;;;;;25.73;37.57;101933.22;4787988;29;20042;-87
2022/07/02 12:14:33;;;;;;;2.22;0.80;;;;;;;26.00;37.18;101933.56;4789546;29;20538;-86
2022/07/02 12:16:59;;;;;;;2.30;0.98;;;;;;;25.78;35.50;101913.81;4802720;29;20043;-85
2022/07/02 12:19:33;;;;;;;2.28;1.00;;;;;;;25.92;36.79;101927.25;4807112;29;20039;-86
2022/07/02 12:21:59;;;;;;;3.03;0.80;;;;;;;25.68;36.92;101924.03;4817463;29;20043;-84
2022/07/02 12:24:35;;;;;;;3.80;0.85;;;;;;;25.50;35.53;101909.03;4812542;29;20058;-86
2022/07/02 12:27:04;;;;;;;4.00;0.90;;;;;;;25.29;38.36;101908.94;4810242;29;20043;-86
2022/07/02 12:29:56;;;;;;;2.20;0.82;;;;;;;24.94;36.61;101907.72;4792215;29;20042;-86
2022/07/02 12:32:39;;;;;;;1.73;0.90;;;;;;;25.11;37.20;101909.25;4799574;29;20039;-86
2022/07/02 12:35:41;;;;;;;1.40;0.82;;;;;;;25.11;38.08;101900.34;4793000;29;20038;-85
2022/07/02 12:38:18;;;;;;;2.33;0.80;;;;;;;25.09;37.34;101895.13;4792704;29;20488;-85
2022/07/02 12:41:04;;;;;;;3.70;0.77;;;;;;;25.09;38.24;101902.38;4774415;29;20048;-85
2022/07/02 12:43:33;;;;;;;2.53;0.82;;;;;;;24.96;37.77;101897.59;4781365;29;20094;-86
2022/07/02 12:46:06;;;;;;;4.82;0.70;;;;;;;24.83;38.45;101892.84;4774599;30;20035;-86
2022/07/02 12:48:45;;;;;;;1.90;0.63;;;;;;;24.81;37.85;101886.78;4760230;30;20180;-86
2022/07/02 12:51:14;;;;;;;1.42;0.60;;;;;;;24.75;38.53;101890.19;4783281;29;20043;-86
2022/07/02 12:53:40;;;;;;;1.80;0.55;;;;;;;24.84;37.89;101875.66;4769142;29;20064;-85
2022/07/02 12:56:06;;;;;;;2.55;0.70;;;;;;;25.11;36.55;101887.72;4768179;30;20038;-85
2022/07/02 12:58:32;;;;;;;8.77;0.90;;;;;;;25.19;38.53;101887.63;4767320;30;20047;-86
2022/07/02 13:00:58;;;;;;;4.97;0.93;;;;;;;25.18;38.04;101882.41;4770932;30;20101;-85
2022/07/02 13:03:27;;;;;;;5.57;0.90;;;;;;;25.33;37.59;101877.06;4774135;30;20517;-86
2022/07/02 13:06:02;;;;;;;12.60;1.10;;;;;;;25.48;36.68;101865.25;4791886;29;20507;-84
2022/07/02 13:08:35;;;;;;;2.92;0.90;;;;;;;25.49;38.40;101869.63;4803814;29;20519;-85
2022/07/02 13:11:05;;;;;;;1.70;0.70;;;;;;;25.69;37.06;101851.06;4815170;29;20046;-86
2022/07/02 13:13:39;;;;;;;1.45;0.60;;;;;;;25.70;36.53;101863.50;4801699;29;20035;-85
2022/07/02 13:16:08;;;;;;;2.33;0.57;;;;;;;25.52;36.02;101858.47;4812061;29;20519;-86
2022/07/02 13:18:33;;;;;;;1.38;0.70;;;;;;;25.37;35.97;101854.94;4805185;29;20070;-86
2022/07/02 13:20:59;;;;;;;1.33;0.60;;;;;;;25.29;35.86;101855.03;4809147;29;20092;-85
2022/07/02 13:23:24;;;;;;;3.30;0.77;;;;;;;25.31;35.66;101858.38;4808949;29;20042;-86
2022/07/02 13:25:54;;;;;;;3.30;1.17;;;;;;;25.68;36.68;101859.34;4788206;29;20050;-86
2022/07/02 13:28:20;;;;;;;1.55;0.55;;;;;;;26.11;36.27;101850.31;4792399;29;20049;-85
2022/07/02 13:30:52;;;;;;;5.88;0.73;;;;;;;26.24;35.22;101846.91;4812592;29;20429;-85
2022/07/02 13:33:17;;;;;;;3.28;0.70;;;;;;;26.34;33.66;101843.91;4797646;29;20050;-87
2022/07/02 13:35:44;;;;;;;2.45;0.50;;;;;;;26.17;34.66;101843.31;4822797;29;20187;-86
2022/07/02 13:40:49;;;;;;;1.77;0.50;;;;;;;26.00;36.19;101831.91;4831707;24;20498;-86
2022/07/02 13:43:18;;;;;;;2.70;0.63;;;;;;;26.36;35.04;101831.06;4787899;29;20061;-85
2022/07/02 13:45:46;;;;;;;2.08;0.65;;;;;;;26.54;35.75;101826.88;4783689;29;20101;-85
2022/07/02 13:48:11;;;;;;;1.98;0.50;;;;;;;26.69;34.10;101829.47;4775488;30;20051;-85
2022/07/02 13:50:36;;;;;;;2.40;0.50;;;;;;;26.55;35.15;101825.03;4776927;29;20562;-85
2022/07/02 13:53:01;;;;;;;2.38;0.35;;;;;;;26.66;34.11;101827.19;4784092;29;20082;-86
2022/07/02 13:55:27;;;;;;;2.08;0.57;;;;;;;26.77;33.40;101821.22;4787044;29;20063;-86
2022/07/02 13:57:52;;;;;;;2.08;0.52;;;;;;;26.70;32.52;101827.63;4787329;29;20100;-86
2022/07/02 14:00:18;;;;;;;2.35;0.38;;;;;;;26.45;32.68;101822.66;4788204;29;20043;-85
2022/07/02 14:02:44;;;;;;;3.60;0.60;;;;;;;26.07;33.58;101816.66;4787066;29;20046;-86
2022/07/02 14:05:16;;;;;;;5.10;0.45;;;;;;;25.84;35.08;101821.34;4797491;29;20027;-85
2022/07/02 14:07:41;;;;;;;1.30;0.40;;;;;;;25.77;33.41;101812.38;4785466;29;20070;-85
2022/07/02 14:10:07;;;;;;;3.67;0.47;;;;;;;25.76;33.72;101816.91;4790757;29;20662;-85
2022/07/02 14:12:32;;;;;;;0.90;0.38;;;;;;;26.00;34.75;101818.41;4787522;29;20092;-85
2022/07/02 14:15:00;;;;;;;4.63;0.60;;;;;;;26.20;35.43;101818.63;4786875;29;20027;-86
2022/07/02 14:17:26;;;;;;;1.90;0.73;;;;;;;26.31;34.05;101801.09;4770858;30;20390;-86
2022/07/02 14:19:51;;;;;;;2.75;0.52;;;;;;;26.35;34.46;101813.19;4770606;30;20046;-86
2022/07/02 14:22:19;;;;;;;2.33;0.50;;;;;;;26.56;33.74;101810.50;4770696;29;20046;-86
2022/07/02 14:24:56;;;;;;;2.63;0.60;;;;;;;26.58;33.03;101803.03;4770032;29;20490;-86
2022/07/02 14:27:21;;;;;;;1.65;0.40;;;;;;;26.76;34.66;101808.75;4787195;29;20059;-86
2022/07/02 14:29:47;;;;;;;2.03;0.50;;;;;;;26.95;33.50;101801.00;4790385;29;20038;-86
2022/07/02 14:32:13;;;;;;;1.73;0.63;;;;;;;26.95;32.96;101806.41;4787617;29;20507;-86
2022/07/02 14:34:39;;;;;;;2.28;0.70;;;;;;;26.97;33.37;101804.34;4787962;29;20032;-86
2022/07/02 14:37:04;;;;;;;1.15;0.60;;;;;;;27.19;33.90;101797.00;4776130;29;20043;-86
2022/07/02 14:39:30;;;;;;;1.88;0.60;;;;;;;27.34;33.68;101797.72;4785027;30;20059;-86
2022/07/02 14:41:56;;;;;;;1.67;0.60;;;;;;;27.11;33.65;101806.13;4787840;29;20035;-87
2022/07/02 14:44:22;;;;;;;2.75;0.60;;;;;;;26.87;32.72;101795.78;4787309;29;20046;-87
2022/07/02 14:46:48;;;;;;;0.77;0.50;;;;;;;26.99;33.78;101797.75;4788674;29;20026;-86
2022/07/02 14:49:13;;;;;;;2.20;0.93;;;;;;;27.11;32.14;101793.44;4798887;29;20042;-86
2022/07/02 14:51:38;;;;;;;2.20;0.60;;;;;;;27.02;33.31;101802.75;4795561;29;20067;-86
2022/07/02 14:54:04;;;;;;;1.40;0.45;;;;;;;27.13;31.90;101801.34;4789168;29;20090;-86
2022/07/02 14:56:31;;;;;;;1.98;0.52;;;;;;;27.11;33.20;101789.91;4788005;29;20039;-86
2022/07/02 14:58:57;;;;;;;1.30;0.40;;;;;;;27.26;32.74;101787.09;4790984;29;20045;-86
2022/07/02 15:01:23;;;;;;;1.17;0.50;;;;;;;26.95;32.55;101791.03;4799877;29;20492;-86
2022/07/02 15:03:49;;;;;;;1.83;1.10;;;;;;;26.53;33.78;101797.38;4778852;29;20039;-86
2022/07/02 15:06:14;;;;;;;1.58;0.75;;;;;;;25.96;33.55;101792.84;4791220;29;20043;-87
2022/07/02 15:08:40;;;;;;;2.10;0.63;;;;;;;25.55;34.80;101779.91;4786180;29;20450;-87
2022/07/02 15:11:06;;;;;;;1.25;0.45;;;;;;;25.48;35.23;101779.00;4798222;29;20058;-87
2022/07/02 15:16:16;;;;;;;1.55;0.60;;;;;;;25.86;36.01;101770.75;4787761;29;20062;-85
2022/07/02 15:18:42;;;;;;;1.05;0.50;;;;;;;26.08;34.52;101771.63;4789025;29;20714;-84
2022/07/02 15:21:22;;;;;;;1.98;0.57;;;;;;;26.21;35.78;101779.84;4782982;29;20046;-87
2022/07/02 15:23:54;;;;;;;4.57;0.70;;;;;;;26.31;35.46;101774.09;4790597;29;20869;-88
2022/07/02 15:26:22;;;;;;;0.85;0.40;;;;;;;26.18;35.09;101764.88;4793357;29;20550;-88
2022/07/02 15:28:48;;;;;;;1.33;0.45;;;;;;;26.18;36.56;101775.66;4788980;29;20066;-87
2022/07/02 15:31:17;;;;;;;0.90;0.38;;;;;;;26.05;37.26;101769.31;4802966;29;20092;-87
2022/07/02 15:33:45;;;;;;;1.00;0.50;;;;;;;25.83;35.72;101771.16;4797598;29;20035;-86
2022/07/02 15:36:15;;;;;;;2.40;0.60;;;;;;;25.69;37.17;101769.34;4796232;29;20047;-86
2022/07/02 15:38:44;;;;;;;2.63;0.50;;;;;;;25.42;36.19;101763.59;4772231;30;20382;-86
2022/07/02 15:41:12;;;;;;;2.05;0.65;;;;;;;25.19;37.18;101762.88;4798178;29;20042;-87
2022/07/02 15:43:38;;;;;;;3.22;0.60;;;;;;;25.08;36.57;101766.88;4800361;29;20038;-86
2022/07/02 15:46:07;;;;;;;1.55;0.60;;;;;;;25.20;37.11;101759.97;4805217;29;20046;-86
2022/07/02 15:48:39;;;;;;;1.95;0.77;;;;;;;25.27;37.11;101760.09;4791281;29;20035;-86
2022/07/02 15:51:32;;;;;;;2.17;0.60;;;;;;;25.29;37.95;101758.06;4799421;29;20557;-87
2022/07/02 15:54:21;;;;;;;1.75;0.60;;;;;;;25.04;37.03;101751.28;4777423;30;20122;-86
2022/07/02 15:56:48;;;;;;;3.47;0.60;;;;;;;24.83;37.68;101752.00;4787054;29;20038;-87
2022/07/02 15:59:25;;;;;;;1.92;0.60;;;;;;;24.86;36.94;101759.72;4798084;29;20405;-87
2022/07/02 16:02:00;;;;;;;0.98;0.45;;;;;;;25.02;37.28;101750.63;4780179;29;20047;-87
2022/07/02 16:04:41;;;;;;;1.60;0.60;;;;;;;25.23;37.30;101753.41;4778007;29;20884;-87
2022/07/02 16:07:09;;;;;;;3.30;0.60;;;;;;;25.39;36.72;101741.59;4793304;29;20034;-86
2022/07/02 16:09:35;;;;;;;4.72;0.57;;;;;;;25.32;36.35;101738.81;4795147;29;20106;-86
2022/07/02 16:12:03;;;;;;;2.63;0.60;;;;;;;25.36;36.83;101742.81;4784530;29;20061;-87
2022/07/02 16:14:32;;;;;;;0.95;0.47;;;;;;;25.48;37.21;101740.44;4789252;29;20055;-86
2022/07/02 16:16:57;;;;;;;1.73;0.43;;;;;;;25.33;36.96;101732.41;4800197;29;20461;-87
2022/07/02 16:19:24;;;;;;;3.15;0.60;;;;;;;25.31;39.48;101723.69;4780570;29;20053;-87
2022/07/02 16:21:51;;;;;;;2.25;0.47;;;;;;;25.33;38.70;101723.47;4796635;29;20039;-86
2022/07/02 16:24:18;;;;;;;4.65;0.80;;;;;;;25.10;38.11;101726.28;4788052;30;20089;-86
2022/07/02 16:26:48;;;;;;;2.53;0.75;;;;;;;24.99;38.30;101730.28;4787601;29;20046;-87
2022/07/02 16:29:17;;;;;;;1.83;0.50;;;;;;;24.91;39.39;101723.13;4798712;29;20051;-87
2022/07/02 16:31:50;;;;;;;3.03;0.73;;;;;;;24.76;38.67;101718.75;4796293;29;20118;-87
2022/07/02 16:34:24;;;;;;;1.00;0.60;;;;;;;24.82;38.82;101723.41;4789233;29;20142;-87
2022/07/02 16:36:55;;;;;;;3.30;0.80;;;;;;;24.80;39.55;101723.56;4789458;29;20069;-86
2022/07/02 16:39:23;;;;;;;1.65;0.52;;;;;;;24.73;39.61;101725.34;4786425;29;20062;-87
2022/07/02 16:41:54;;;;;;;1.00;0.50;;;;;;;24.63;38.61;101731.00;4786237;29;20373;-87
2022/07/02 16:44:31;;;;;;;5.20;0.60;;;;;;;24.61;39.39;101724.13;4790278;29;20051;-87
2022/07/02 16:46:59;;;;;;;2.35;0.60;;;;;;;24.59;41.29;101723.47;4773088;29;20031;-86
2022/07/02 16:49:35;;;;;;;2.33;0.50;;;;;;;24.51;39.70;101718.19;4788922;29;20035;-87
2022/07/02 16:52:06;;;;;;;2.30;0.60;;;;;;;24.34;40.10;101723.69;4786954;29;20087;-87
2022/07/02 16:54:33;;;;;;;4.78;0.60;;;;;;;24.31;39.80;101725.91;4770835;29;20038;-86
2022/07/02 16:57:00;;;;;;;1.35;0.50;;;;;;;24.28;40.84;101710.97;4789502;29;20070;-87
2022/07/02 16:59:38;;;;;;;2.85;0.60;;;;;;;24.29;40.71;101718.03;4782956;29;20038;-86
2022/07/02 17:04:34;;;;;;;3.28;0.80;;;;;;;24.12;40.91;101716.47;4790254;29;20070;-86
2022/07/02 17:07:01;;;;;;;2.03;0.50;;;;;;;24.02;40.93;101713.22;4793574;29;20027;-87
2022/07/02 17:09:26;;;;;;;1.58;0.50;;;;;;;23.99;41.29;101711.69;4774290;30;20093;-87
2022/07/02 17:11:57;;;;;;;1.95;0.70;;;;;;;23.96;41.26;101705.84;4793412;29;20047;-87
2022/07/02 17:14:37;;;;;;;;;;;;;;;;;;;;;
2022/07/02 17:17:04;;;;;;;2.40;0.60;;;;;;;24.00;42.29;101707.16;4797170;29;20033;-87
2022/07/02 17:19:45;;;;;;;1.80;0.60;;;;;;;23.89;43.80;101704.91;4797826;29;20104;-87
2022/07/02 17:22:11;;;;;;;1.42;0.50;;;;;;;23.87;42.43;101712.31;4785381;29;20031;-86
2022/07/02 17:24:46;;;;;;;4.13;0.60;;;;;;;23.91;42.41;101710.94;4788976;29;20042;-86
2022/07/02 17:31:45;;;;;;;1.17;0.57;;;;;;;23.93;44.28;101714.28;4791414;29;20075;-87
2022/07/02 17:34:47;;;;;;;;;;;;;;;;;;;;;
2022/07/02 17:37:14;;;;;;;4.40;0.77;;;;;;;23.81;44.96;101713.03;4723993;30;19918;-87
2022/07/02 17:40:23;;;;;;;2.03;0.60;;;;;;;23.78;45.14;101708.00;4715903;30;20147;-87
2022/07/02 17:42:54;;;;;;;2.78;0.57;;;;;;;23.79;45.66;101709.69;4766221;29;20517;-87
2022/07/02 17:46:10;;;;;;;1.73;0.70;;;;;;;23.84;45.04;101716.19;4770317;29;20059;-88
2022/07/02 17:49:22;;;;;;;1.65;0.60;;;;;;;23.75;45.77;101718.09;4759439;29;20131;-87
2022/07/02 17:52:37;;;;;;;;;;;;;;;;;;;;;
2022/07/02 17:55:12;;;;;;;5.13;0.70;;;;;;;23.56;46.14;101705.13;4732025;30;20544;-88
2022/07/02 17:57:39;;;;;;;3.58;0.85;;;;;;;23.38;47.78;101696.47;4729040;30;20048;-88
2022/07/02 18:00:06;;;;;;;2.15;0.63;;;;;;;23.35;47.71;101702.19;4731613;30;20082;-87
2022/07/02 18:07:54;;;;;;;3.25;0.90;;;;;;;23.31;46.75;101690.13;5102541;27;1624289;-86
2022/07/02 18:10:20;;;;;;;3.40;0.90;;;;;;;23.25;47.42;101686.31;5292164;22;20053;-87
2022/07/02 18:12:47;;;;;;;1.50;0.77;;;;;;;23.26;47.96;101687.16;5047617;28;20040;-88
2022/07/02 18:15:12;;;;;;;2.38;0.70;;;;;;;23.28;46.67;101679.75;5055216;28;20025;-88
2022/07/02 18:17:38;;;;;;;1.70;0.80;;;;;;;23.27;46.52;101680.75;5053960;28;20425;-88
2022/07/02 18:20:24;;;;;;;2.25;0.88;;;;;;;23.16;48.34;101675.75;5044105;28;20175;-85
2022/07/02 18:22:49;;;;;;;2.83;0.88;;;;;;;23.13;48.41;101676.94;5043480;28;20088;-87
2022/07/02 18:25:14;;;;;;;2.63;0.80;;;;;;;23.03;49.06;101671.81;5044556;28;20474;-87
2022/07/02 18:27:48;;;;;;;7.00;1.00;;;;;;;22.98;49.28;101671.50;5056681;28;20029;-86
2022/07/02 18:30:15;;;;;;;2.65;0.90;;;;;;;22.88;50.41;101662.81;5045338;28;20458;-88
2022/07/02 18:32:40;;;;;;;2.95;0.82;;;;;;;22.78;51.68;101673.69;5042684;28;20032;-86
2022/07/02 18:35:07;;;;;;;3.88;0.95;;;;;;;22.72;52.96;101673.56;5044737;28;20029;-86
2022/07/02 18:37:35;;;;;;;3.50;0.98;;;;;;;22.56;52.18;101668.25;5045808;28;20068;-86
2022/07/02 18:40:06;;;;;;;3.35;0.98;;;;;;;22.60;53.68;101674.94;5047177;28;20105;-87
2022/07/02 18:42:37;;;;;;;3.55;1.10;;;;;;;22.41;53.89;101671.63;5041970;28;20104;-86
2022/07/02 18:45:07;;;;;;;6.95;1.20;;;;;;;22.36;54.29;101673.16;5044287;28;20025;-86
2022/07/02 18:47:33;;;;;;;6.35;1.10;;;;;;;22.36;54.77;101668.63;5055406;28;20025;-88
2022/07/02 18:50:00;;;;;;;4.18;1.02;;;;;;;22.28;54.00;101670.47;5061897;28;20028;-87
2022/07/02 18:52:27;;;;;;;5.22;0.90;;;;;;;22.24;55.37;101667.31;5051558;28;20049;-88
2022/07/02 18:55:02;;;;;;;4.55;1.00;;;;;;;22.16;55.25;101664.63;5053934;28;20083;-86
2022/07/02 18:57:31;;;;;;;7.43;1.17;;;;;;;22.08;56.41;101668.16;5048648;28;20481;-86
2022/07/02 18:59:58;;;;;;;4.97;1.20;;;;;;;21.98;56.07;101669.28;5051476;28;20029;-87
2022/07/02 19:02:35;;;;;;;5.78;1.20;;;;;;;21.87;56.48;101663.25;5048710;28;20032;-87
2022/07/02 19:05:05;;;;;;;5.40;1.10;;;;;;;21.90;56.99;101662.94;5046540;28;20033;-87
2022/07/02 19:07:42;;;;;;;1.98;1.10;;;;;;;21.81;57.01;101661.25;5048254;28;20455;-87
2022/07/02 19:10:14;;;;;;;5.20;1.17;;;;;;;21.79;57.14;101662.44;5048677;28;20041;-87
2022/07/02 19:12:46;;;;;;;2.53;1.00;;;;;;;21.76;57.19;101660.94;5049412;28;20031;-87
2022/07/02 19:15:12;;;;;;;2.50;1.20;;;;;;;21.67;58.23;101656.56;5050306;28;20090;-87
2022/07/02 19:17:37;;;;;;;3.88;1.20;;;;;;;21.59;58.28;101653.84;5041675;28;20563;-87
2022/07/02 19:20:07;;;;;;;4.03;1.20;;;;;;;21.47;58.04;101645.31;5037167;28;20148;-86
2022/07/02 19:22:40;;;;;;;3.88;1.23;;;;;;;21.49;57.69;101655.84;5039035;28;20026;-87
2022/07/02 19:25:09;;;;;;;4.45;1.30;;;;;;;21.40;57.84;101638.94;5032078;28;20025;-87
2022/07/02 19:30:35;;;;;;;2.60;1.20;;;;;;;21.29;57.71;101651.81;5034122;28;20126;-87
2022/07/02 19:33:02;;;;;;;3.22;1.30;;;;;;;21.20;58.99;101654.41;5031287;28;20051;-87
2022/07/02 19:35:33;;;;;;;3.22;1.30;;;;;;;21.08;59.52;101652.22;5032484;28;20018;-87
2022/07/02 19:37:59;;;;;;;5.47;1.10;;;;;;;20.96;60.01;101643.66;5033434;28;20050;-86
2022/07/02 19:40:32;;;;;;;3.83;1.13;;;;;;;20.90;60.04;101649.66;5031785;28;20032;-87
2022/07/02 19:42:59;;;;;;;2.67;1.30;;;;;;;20.81;60.43;101653.25;5032746;28;20025;-86
2022/07/02 19:45:27;;;;;;;2.95;1.35;;;;;;;20.73;61.07;101646.03;5032289;28;20044;-87
2022/07/02 19:47:55;;;;;;;2.67;1.38;;;;;;;20.61;62.08;101642.81;5031062;28;20116;-87
2022/07/02 19:50:31;;;;;;;5.85;1.73;;;;;;;20.48;63.32;101642.44;5033385;28;20029;-86
2022/07/02 19:52:57;;;;;;;6.07;1.80;;;;;;;20.31;63.72;101640.59;5027381;28;20112;-86
2022/07/02 19:55:23;;;;;;;6.60;1.50;;;;;;;20.24;64.45;101660.94;5030182;28;20160;-87
2022/07/02 19:57:48;;;;;;;5.80;1.50;;;;;;;20.16;64.27;101655.53;5032726;28;20635;-87
2022/07/02 20:00:21;;;;;;;2.55;1.30;;;;;;;20.02;64.67;101649.78;5031349;28;20030;-86
2022/07/02 20:02:52;;;;;;;2.20;1.27;;;;;;;19.98;65.12;101667.06;5027584;28;20032;-86
2022/07/02 20:05:23;;;;;;;4.10;1.40;;;;;;;19.90;65.63;101674.19;5027447;28;20029;-87
2022/07/02 20:07:55;;;;;;;4.40;1.60;;;;;;;19.71;66.02;101672.53;5021610;28;20461;-86
2022/07/02 20:10:26;;;;;;;7.50;1.77;;;;;;;19.69;66.83;101679.88;5033226;28;20105;-87
2022/07/02 20:12:52;;;;;;;3.30;1.55;;;;;;;19.60;66.98;101672.75;5034820;28;20029;-86
2022/07/02 20:15:27;;;;;;;4.47;1.60;;;;;;;19.61;66.70;101674.41;5028931;28;20496;-86
2022/07/02 20:17:55;;;;;;;3.05;1.80;;;;;;;19.49;68.36;101676.44;5032355;28;20025;-86
2022/07/02 20:20:22;;;;;;;5.43;1.92;;;;;;;19.40;68.65;101677.34;5031720;28;20041;-86
2022/07/02 20:22:48;;;;;;;4.20;1.70;;;;;;;19.30;68.75;101680.09;5029462;28;20025;-87
2022/07/02 20:25:17;;;;;;;8.05;1.30;;;;;;;19.25;68.84;101679.72;5028681;28;20033;-86
2022/07/02 20:27:43;;;;;;;5.40;1.42;;;;;;;19.23;69.10;101691.53;5042101;28;20033;-86
2022/07/02 20:30:10;;;;;;;7.57;1.70;;;;;;;19.12;68.95;101679.19;5031403;28;20039;-86
2022/07/02 20:32:35;;;;;;;6.65;1.73;;;;;;;19.04;69.41;101676.44;5030831;28;20033;-86
2022/07/02 20:35:12;;;;;;;5.40;1.60;;;;;;;18.98;69.17;101677.03;5029119;28;20528;-86
2022/07/02 20:37:37;;;;;;;5.50;1.80;;;;;;;18.95;70.00;101680.84;5029382;28;20029;-87
2022/07/02 20:40:04;;;;;;;3.08;1.80;;;;;;;18.85;70.06;101677.38;5039591;28;20047;-87
2022/07/02 20:42:32;;;;;;;4.78;2.00;;;;;;;18.87;70.83;101693.22;5032080;28;20025;-86
2022/07/02 20:44:59;;;;;;;4.43;1.90;;;;;;;18.77;70.95;101685.25;5040830;28;20028;-87
2022/07/02 20:47:31;;;;;;;5.53;1.73;;;;;;;18.70;71.66;101690.31;5032683;28;20109;-86
2022/07/02 20:49:56;;;;;;;5.28;1.70;;;;;;;18.63;72.13;101693.72;5030136;28;20124;-86
2022/07/02 20:52:22;;;;;;;6.45;1.60;;;;;;;18.61;72.58;101682.34;5031835;28;20029;-86
2022/07/02 20:54:47;;;;;;;4.18;1.83;;;;;;;18.62;72.74;101686.72;5030406;28;20026;-86
2022/07/02 20:57:14;;;;;;;3.53;1.60;;;;;;;18.58;72.92;101688.78;5029855;28;20033;-86
2022/07/02 20:59:39;;;;;;;2.67;1.50;;;;;;;18.52;73.42;101681.38;5030677;28;20116;-86
2022/07/02 21:02:06;;;;;;;9.00;1.55;;;;;;;18.42;73.82;101676.09;5029845;28;20169;-86
2022/07/02 21:04:37;;;;;;;5.35;1.80;;;;;;;18.41;74.00;101689.53;5027456;28;20108;-86
2022/07/02 21:10:25;;;;;;;5.40;1.58;;;;;;;18.38;74.52;101682.66;5020326;28;20119;-86
2022/07/02 21:13:48;;;;;;;4.13;1.70;;;;;;;18.27;74.08;101677.50;5030709;28;20038;-86
2022/07/02 21:16:40;;;;;;;3.90;1.88;;;;;;;18.28;73.55;101681.84;4969637;28;20065;-86
2022/07/02 21:19:06;;;;;;;5.03;2.25;;;;;;;18.09;75.77;101674.75;4953053;28;20034;-86
2022/07/02 21:21:35;;;;;;;5.35;2.17;;;;;;;18.07;76.17;101681.19;4969169;28;20035;-86
2022/07/02 21:27:50;;;;;;;;;;;;;;;;;;;;;
2022/07/02 21:30:51;;;;;;;4.00;2.33;;;;;;;17.97;75.32;101681.19;4973801;28;20045;-85
2022/07/02 21:33:33;;;;;;;5.55;1.85;;;;;;;17.84;76.22;101675.31;4912009;28;20044;-86
2022/07/02 21:36:05;;;;;;;4.90;2.30;;;;;;;17.73;77.75;101678.09;4953013;28;20122;-86
2022/07/02 21:45:17;;;;;;;6.90;2.40;;;;;;;17.54;78.63;101674.41;4935675;29;20042;-86
2022/07/02 21:51:31;;;;;;;7.78;4.50;;;;;;;17.50;78.38;101667.69;4897658;29;20043;-86
2022/07/02 21:54:22;;;;;;;10.77;7.15;;;;;;;17.45;78.34;101669.06;4931593;29;20043;-86
2022/07/02 21:56:47;;;;;;;12.18;8.13;;;;;;;17.38;78.50;101666.13;4950136;28;20027;-86
2022/07/02 22:03:10;;;;;;;;;;;;;;;;;;;;;
2022/07/02 22:06:32;;;;;;;11.65;8.60;;;;;;;17.31;77.63;101672.97;5029580;28;20036;-86
2022/07/02 22:09:54;;;;;;;10.52;8.10;;;;;;;17.23;77.86;101664.84;5030027;28;20104;-86
2022/07/02 22:12:20;;;;;;;9.95;7.40;;;;;;;17.20;79.09;101678.38;5010950;28;20060;-86
2022/07/02 22:15:06;;;;;;;9.45;6.90;;;;;;;17.15;79.59;101680.63;5027677;28;20105;-86